sensor_id;sensor_type;location;lat;lon;timestamp;P1;durP1;ratioP1;P2;durP2;ratioP2
73023;SDS011;72676;47.526;8.538;2023-12-22T00:00:56;7.90;;;1.30;;
73023;SDS011;72676;47.526;8.538;2023-12-22T00:03:23;5.17;;;0.93;;
73023;SDS011;72676;47.526;8.538;2023-12-22T00:05:49;7.10;;;1.60;;
73023;SDS011;72676;47.526;8.538;2023-12-22T00:08:16;9.20;;;1.43;;
73023;SDS011;72676;47.526;8.538;2023-12-22T00:10:42;6.73;;;1.20;;
73023;SDS011;72676;47.526;8.538;2023-12-22T00:13:09;6.33;;;1.53;;
73023;SDS011;72676;47.526;8.538;2023-12-22T00:15:35;8.03;;;2.10;;
73023;SDS011;72676;47.526;8.538;2023-12-22T00:18:02;9.03;;;1.33;;
73023;SDS011;72676;47.526;8.538;2023-12-22T00:20:29;8.60;;;1.70;;
73023;SDS011;72676;47.526;8.538;2023-12-22T00:22:55;5.77;;;1.50;;
73023;SDS011;72676;47.526;8.538;2023-12-22T00:25:22;6.50;;;1.23;;
73023;SDS011;72676;47.526;8.538;2023-12-22T00:27:48;7.17;;;1.20;;
73023;SDS011;72676;47.526;8.538;2023-12-22T00:30:15;8.30;;;1.43;;
73023;SDS011;72676;47.526;8.538;2023-12-22T00:32:42;7.17;;;1.63;;
73023;SDS011;72676;47.526;8.538;2023-12-22T00:35:08;7.33;;;1.47;;
73023;SDS011;72676;47.526;8.538;2023-12-22T00:37:35;6.20;;;1.37;;
73023;SDS011;72676;47.526;8.538;2023-12-22T00:40:02;9.50;;;1.50;;
73023;SDS011;72676;47.526;8.538;2023-12-22T00:42:31;5.63;;;1.30;;
73023;SDS011;72676;47.526;8.538;2023-12-22T00:44:58;6.40;;;1.37;;
73023;SDS011;72676;47.526;8.538;2023-12-22T00:47:24;5.80;;;1.30;;
73023;SDS011;72676;47.526;8.538;2023-12-22T00:49:51;6.57;;;1.43;;
73023;SDS011;72676;47.526;8.538;2023-12-22T00:52:17;6.83;;;1.07;;
73023;SDS011;72676;47.526;8.538;2023-12-22T00:54:44;17.30;;;1.90;;
73023;SDS011;72676;47.526;8.538;2023-12-22T00:57:10;7.80;;;1.70;;
73023;SDS011;72676;47.526;8.538;2023-12-22T00:59:37;5.80;;;1.80;;
73023;SDS011;72676;47.526;8.538;2023-12-22T01:02:04;10.33;;;1.70;;
73023;SDS011;72676;47.526;8.538;2023-12-22T01:04:30;7.23;;;1.60;;
73023;SDS011;72676;47.526;8.538;2023-12-22T01:06:57;8.80;;;1.87;;
73023;SDS011;72676;47.526;8.538;2023-12-22T01:09:24;9.30;;;1.80;;
73023;SDS011;72676;47.526;8.538;2023-12-22T01:11:50;7.73;;;1.43;;
73023;SDS011;72676;47.526;8.538;2023-12-22T01:14:17;5.63;;;1.40;;
73023;SDS011;72676;47.526;8.538;2023-12-22T01:16:43;8.20;;;1.40;;
73023;SDS011;72676;47.526;8.538;2023-12-22T01:19:10;11.73;;;1.77;;
73023;SDS011;72676;47.526;8.538;2023-12-22T01:21:36;4.90;;;1.23;;
73023;SDS011;72676;47.526;8.538;2023-12-22T01:24:03;3.80;;;0.83;;
73023;SDS011;72676;47.526;8.538;2023-12-22T01:26:29;4.70;;;1.10;;
73023;SDS011;72676;47.526;8.538;2023-12-22T01:28:56;5.77;;;1.27;;
73023;SDS011;72676;47.526;8.538;2023-12-22T01:31:22;3.87;;;1.03;;
73023;SDS011;72676;47.526;8.538;2023-12-22T01:33:49;6.60;;;1.67;;
73023;SDS011;72676;47.526;8.538;2023-12-22T01:36:15;7.30;;;1.37;;
73023;SDS011;72676;47.526;8.538;2023-12-22T01:38:42;4.77;;;1.40;;
73023;SDS011;72676;47.526;8.538;2023-12-22T01:41:08;4.70;;;1.10;;
73023;SDS011;72676;47.526;8.538;2023-12-22T01:43:35;4.33;;;1.10;;
73023;SDS011;72676;47.526;8.538;2023-12-22T01:46:01;4.93;;;1.20;;
73023;SDS011;72676;47.526;8.538;2023-12-22T01:48:28;5.30;;;1.30;;
73023;SDS011;72676;47.526;8.538;2023-12-22T01:50:56;5.77;;;1.30;;
73023;SDS011;72676;47.526;8.538;2023-12-22T01:53:25;6.77;;;1.20;;
73023;SDS011;72676;47.526;8.538;2023-12-22T01:55:53;4.93;;;1.03;;
73023;SDS011;72676;47.526;8.538;2023-12-22T01:58:24;4.00;;;1.20;;
73023;SDS011;72676;47.526;8.538;2023-12-22T02:00:53;5.43;;;1.43;;
73023;SDS011;72676;47.526;8.538;2023-12-22T02:03:21;4.90;;;1.67;;
73023;SDS011;72676;47.526;8.538;2023-12-22T02:05:47;5.70;;;1.30;;
73023;SDS011;72676;47.526;8.538;2023-12-22T02:08:15;4.17;;;1.07;;
73023;SDS011;72676;47.526;8.538;2023-12-22T02:10:44;6.80;;;2.00;;
73023;SDS011;72676;47.526;8.538;2023-12-22T02:13:11;10.73;;;2.80;;
73023;SDS011;72676;47.526;8.538;2023-12-22T02:15:37;6.37;;;1.40;;
73023;SDS011;72676;47.526;8.538;2023-12-22T02:20:39;7.77;;;1.30;;
73023;SDS011;72676;47.526;8.538;2023-12-22T02:23:05;6.40;;;1.67;;
73023;SDS011;72676;47.526;8.538;2023-12-22T02:25:32;8.83;;;1.40;;
73023;SDS011;72676;47.526;8.538;2023-12-22T02:28:04;6.87;;;1.80;;
73023;SDS011;72676;47.526;8.538;2023-12-22T02:30:44;9.30;;;1.37;;
73023;SDS011;72676;47.526;8.538;2023-12-22T02:33:17;10.47;;;1.53;;
73023;SDS011;72676;47.526;8.538;2023-12-22T02:35:45;9.10;;;1.57;;
73023;SDS011;72676;47.526;8.538;2023-12-22T02:38:15;4.90;;;1.00;;
73023;SDS011;72676;47.526;8.538;2023-12-22T02:40:42;9.30;;;1.10;;
73023;SDS011;72676;47.526;8.538;2023-12-22T02:43:10;5.40;;;1.20;;
73023;SDS011;72676;47.526;8.538;2023-12-22T02:45:37;6.23;;;1.13;;
73023;SDS011;72676;47.526;8.538;2023-12-22T02:48:04;6.50;;;1.17;;
73023;SDS011;72676;47.526;8.538;2023-12-22T02:50:31;5.53;;;1.03;;
73023;SDS011;72676;47.526;8.538;2023-12-22T02:52:58;12.27;;;1.50;;
73023;SDS011;72676;47.526;8.538;2023-12-22T02:55:25;6.27;;;1.23;;
73023;SDS011;72676;47.526;8.538;2023-12-22T02:57:52;8.07;;;1.53;;
73023;SDS011;72676;47.526;8.538;2023-12-22T03:00:18;5.73;;;1.20;;
73023;SDS011;72676;47.526;8.538;2023-12-22T03:02:45;7.33;;;1.20;;
73023;SDS011;72676;47.526;8.538;2023-12-22T03:05:11;5.27;;;1.17;;
73023;SDS011;72676;47.526;8.538;2023-12-22T03:07:38;8.70;;;1.40;;
73023;SDS011;72676;47.526;8.538;2023-12-22T03:10:04;6.73;;;1.47;;
73023;SDS011;72676;47.526;8.538;2023-12-22T03:12:31;11.33;;;2.00;;
73023;SDS011;72676;47.526;8.538;2023-12-22T03:14:57;6.93;;;1.23;;
73023;SDS011;72676;47.526;8.538;2023-12-22T03:17:24;6.90;;;1.37;;
73023;SDS011;72676;47.526;8.538;2023-12-22T03:19:50;13.17;;;2.73;;
73023;SDS011;72676;47.526;8.538;2023-12-22T03:22:17;8.13;;;1.40;;
73023;SDS011;72676;47.526;8.538;2023-12-22T03:24:43;5.20;;;1.40;;
73023;SDS011;72676;47.526;8.538;2023-12-22T03:27:10;11.43;;;1.47;;
73023;SDS011;72676;47.526;8.538;2023-12-22T03:29:38;14.17;;;1.53;;
73023;SDS011;72676;47.526;8.538;2023-12-22T03:32:05;11.00;;;1.30;;
73023;SDS011;72676;47.526;8.538;2023-12-22T03:34:31;9.20;;;1.90;;
73023;SDS011;72676;47.526;8.538;2023-12-22T03:36:58;11.87;;;2.10;;
73023;SDS011;72676;47.526;8.538;2023-12-22T03:39:24;20.87;;;2.17;;
73023;SDS011;72676;47.526;8.538;2023-12-22T03:41:51;10.63;;;1.60;;
73023;SDS011;72676;47.526;8.538;2023-12-22T03:44:17;6.73;;;1.20;;
73023;SDS011;72676;47.526;8.538;2023-12-22T03:46:44;6.60;;;1.47;;
73023;SDS011;72676;47.526;8.538;2023-12-22T03:49:10;8.17;;;1.63;;
73023;SDS011;72676;47.526;8.538;2023-12-22T03:51:37;11.10;;;1.80;;
73023;SDS011;72676;47.526;8.538;2023-12-22T03:54:04;7.10;;;2.03;;
73023;SDS011;72676;47.526;8.538;2023-12-22T03:56:30;9.03;;;1.80;;
73023;SDS011;72676;47.526;8.538;2023-12-22T03:58:57;8.00;;;1.70;;
73023;SDS011;72676;47.526;8.538;2023-12-22T04:01:23;10.73;;;1.73;;
73023;SDS011;72676;47.526;8.538;2023-12-22T04:03:50;8.63;;;2.10;;
73023;SDS011;72676;47.526;8.538;2023-12-22T04:06:16;11.13;;;2.30;;
73023;SDS011;72676;47.526;8.538;2023-12-22T04:08:43;11.60;;;4.60;;
73023;SDS011;72676;47.526;8.538;2023-12-22T04:11:09;17.03;;;2.27;;
73023;SDS011;72676;47.526;8.538;2023-12-22T04:13:36;9.17;;;2.20;;
73023;SDS011;72676;47.526;8.538;2023-12-22T04:16:02;18.83;;;2.40;;
73023;SDS011;72676;47.526;8.538;2023-12-22T04:18:31;17.90;;;2.53;;
73023;SDS011;72676;47.526;8.538;2023-12-22T04:20:58;15.43;;;2.53;;
73023;SDS011;72676;47.526;8.538;2023-12-22T04:23:25;9.83;;;2.47;;
73023;SDS011;72676;47.526;8.538;2023-12-22T04:25:51;13.00;;;2.20;;
73023;SDS011;72676;47.526;8.538;2023-12-22T04:28:18;11.90;;;2.23;;
73023;SDS011;72676;47.526;8.538;2023-12-22T04:30:44;15.50;;;2.43;;
73023;SDS011;72676;47.526;8.538;2023-12-22T04:33:11;10.90;;;2.60;;
73023;SDS011;72676;47.526;8.538;2023-12-22T04:35:37;8.43;;;1.60;;
73023;SDS011;72676;47.526;8.538;2023-12-22T04:38:04;8.93;;;1.80;;
73023;SDS011;72676;47.526;8.538;2023-12-22T04:40:32;8.13;;;1.73;;
73023;SDS011;72676;47.526;8.538;2023-12-22T04:42:59;15.57;;;2.13;;
73023;SDS011;72676;47.526;8.538;2023-12-22T04:45:25;10.53;;;1.90;;
73023;SDS011;72676;47.526;8.538;2023-12-22T04:47:52;12.97;;;2.30;;
73023;SDS011;72676;47.526;8.538;2023-12-22T04:50:19;8.10;;;1.50;;
73023;SDS011;72676;47.526;8.538;2023-12-22T04:52:45;16.27;;;1.97;;
73023;SDS011;72676;47.526;8.538;2023-12-22T04:55:12;9.80;;;1.63;;
73023;SDS011;72676;47.526;8.538;2023-12-22T04:57:39;9.50;;;2.77;;
73023;SDS011;72676;47.526;8.538;2023-12-22T05:00:05;13.33;;;2.23;;
73023;SDS011;72676;47.526;8.538;2023-12-22T05:02:32;16.40;;;2.20;;
73023;SDS011;72676;47.526;8.538;2023-12-22T05:04:59;17.27;;;2.27;;
73023;SDS011;72676;47.526;8.538;2023-12-22T05:07:27;16.30;;;2.03;;
73023;SDS011;72676;47.526;8.538;2023-12-22T05:09:54;13.23;;;2.60;;
73023;SDS011;72676;47.526;8.538;2023-12-22T05:12:21;13.20;;;2.23;;
73023;SDS011;72676;47.526;8.538;2023-12-22T05:14:48;13.87;;;2.60;;
73023;SDS011;72676;47.526;8.538;2023-12-22T05:17:14;13.50;;;2.03;;
73023;SDS011;72676;47.526;8.538;2023-12-22T05:19:41;12.13;;;2.40;;
73023;SDS011;72676;47.526;8.538;2023-12-22T05:22:07;15.03;;;4.10;;
73023;SDS011;72676;47.526;8.538;2023-12-22T05:24:33;15.50;;;2.33;;
73023;SDS011;72676;47.526;8.538;2023-12-22T05:27:00;6.40;;;2.03;;
73023;SDS011;72676;47.526;8.538;2023-12-22T05:29:27;16.73;;;2.80;;
73023;SDS011;72676;47.526;8.538;2023-12-22T05:31:54;12.90;;;2.40;;
73023;SDS011;72676;47.526;8.538;2023-12-22T05:34:20;15.73;;;3.20;;
73023;SDS011;72676;47.526;8.538;2023-12-22T05:36:47;13.50;;;2.20;;
73023;SDS011;72676;47.526;8.538;2023-12-22T05:39:13;15.30;;;2.97;;
73023;SDS011;72676;47.526;8.538;2023-12-22T05:41:40;19.20;;;2.97;;
73023;SDS011;72676;47.526;8.538;2023-12-22T05:44:06;13.43;;;2.43;;
73023;SDS011;72676;47.526;8.538;2023-12-22T05:46:36;12.37;;;2.13;;
73023;SDS011;72676;47.526;8.538;2023-12-22T05:49:06;9.33;;;2.10;;
73023;SDS011;72676;47.526;8.538;2023-12-22T05:51:39;13.03;;;2.20;;
73023;SDS011;72676;47.526;8.538;2023-12-22T05:54:08;15.20;;;2.80;;
73023;SDS011;72676;47.526;8.538;2023-12-22T05:56:36;10.20;;;2.47;;
73023;SDS011;72676;47.526;8.538;2023-12-22T05:59:03;8.50;;;2.10;;
73023;SDS011;72676;47.526;8.538;2023-12-22T06:01:29;23.07;;;3.67;;
73023;SDS011;72676;47.526;8.538;2023-12-22T06:03:56;11.10;;;2.43;;
73023;SDS011;72676;47.526;8.538;2023-12-22T06:06:22;17.97;;;2.80;;
73023;SDS011;72676;47.526;8.538;2023-12-22T06:08:49;14.53;;;2.57;;
73023;SDS011;72676;47.526;8.538;2023-12-22T06:11:16;15.33;;;2.53;;
73023;SDS011;72676;47.526;8.538;2023-12-22T06:13:42;21.03;;;3.40;;
73023;SDS011;72676;47.526;8.538;2023-12-22T06:16:12;14.27;;;2.63;;
73023;SDS011;72676;47.526;8.538;2023-12-22T06:18:43;15.50;;;2.77;;
73023;SDS011;72676;47.526;8.538;2023-12-22T06:21:10;12.43;;;2.53;;
73023;SDS011;72676;47.526;8.538;2023-12-22T06:23:37;19.57;;;3.03;;
73023;SDS011;72676;47.526;8.538;2023-12-22T06:26:12;11.30;;;2.17;;
73023;SDS011;72676;47.526;8.538;2023-12-22T06:28:39;13.60;;;2.53;;
73023;SDS011;72676;47.526;8.538;2023-12-22T06:31:07;18.20;;;2.43;;
73023;SDS011;72676;47.526;8.538;2023-12-22T06:33:35;12.73;;;1.80;;
73023;SDS011;72676;47.526;8.538;2023-12-22T06:36:01;14.73;;;2.43;;
73023;SDS011;72676;47.526;8.538;2023-12-22T06:38:28;19.17;;;3.00;;
73023;SDS011;72676;47.526;8.538;2023-12-22T06:40:54;22.43;;;4.10;;
73023;SDS011;72676;47.526;8.538;2023-12-22T06:43:21;13.77;;;2.50;;
73023;SDS011;72676;47.526;8.538;2023-12-22T06:45:48;12.40;;;2.57;;
73023;SDS011;72676;47.526;8.538;2023-12-22T06:48:14;12.33;;;2.33;;
73023;SDS011;72676;47.526;8.538;2023-12-22T06:50:41;29.10;;;2.77;;
73023;SDS011;72676;47.526;8.538;2023-12-22T06:53:11;20.33;;;2.20;;
73023;SDS011;72676;47.526;8.538;2023-12-22T06:55:51;12.23;;;2.83;;
73023;SDS011;72676;47.526;8.538;2023-12-22T06:58:17;19.70;;;3.13;;
73023;SDS011;72676;47.526;8.538;2023-12-22T07:00:44;12.47;;;2.30;;
73023;SDS011;72676;47.526;8.538;2023-12-22T07:03:10;12.37;;;2.53;;
73023;SDS011;72676;47.526;8.538;2023-12-22T07:05:39;12.77;;;2.50;;
73023;SDS011;72676;47.526;8.538;2023-12-22T07:08:05;13.30;;;2.63;;
73023;SDS011;72676;47.526;8.538;2023-12-22T07:10:32;15.13;;;2.53;;
73023;SDS011;72676;47.526;8.538;2023-12-22T07:12:59;15.57;;;2.60;;
73023;SDS011;72676;47.526;8.538;2023-12-22T07:15:25;12.73;;;2.67;;
73023;SDS011;72676;47.526;8.538;2023-12-22T07:17:52;18.20;;;2.97;;
73023;SDS011;72676;47.526;8.538;2023-12-22T07:20:19;12.90;;;2.50;;
73023;SDS011;72676;47.526;8.538;2023-12-22T07:22:46;20.70;;;3.00;;
73023;SDS011;72676;47.526;8.538;2023-12-22T07:25:12;9.07;;;1.97;;
73023;SDS011;72676;47.526;8.538;2023-12-22T07:27:40;12.67;;;2.67;;
73023;SDS011;72676;47.526;8.538;2023-12-22T07:30:07;17.97;;;2.20;;
73023;SDS011;72676;47.526;8.538;2023-12-22T07:32:33;14.97;;;2.57;;
73023;SDS011;72676;47.526;8.538;2023-12-22T07:35:00;12.50;;;2.50;;
73023;SDS011;72676;47.526;8.538;2023-12-22T07:37:27;19.57;;;3.00;;
73023;SDS011;72676;47.526;8.538;2023-12-22T07:39:53;12.57;;;2.93;;
73023;SDS011;72676;47.526;8.538;2023-12-22T07:42:20;11.70;;;2.70;;
73023;SDS011;72676;47.526;8.538;2023-12-22T07:44:46;11.10;;;2.37;;
73023;SDS011;72676;47.526;8.538;2023-12-22T07:47:13;10.13;;;1.87;;
73023;SDS011;72676;47.526;8.538;2023-12-22T07:49:40;12.53;;;1.87;;
73023;SDS011;72676;47.526;8.538;2023-12-22T07:52:07;11.10;;;2.17;;
73023;SDS011;72676;47.526;8.538;2023-12-22T07:54:33;14.33;;;2.60;;
73023;SDS011;72676;47.526;8.538;2023-12-22T07:57:00;10.70;;;2.30;;
73023;SDS011;72676;47.526;8.538;2023-12-22T07:59:27;12.93;;;2.47;;
73023;SDS011;72676;47.526;8.538;2023-12-22T08:01:57;14.10;;;1.83;;
73023;SDS011;72676;47.526;8.538;2023-12-22T08:04:24;10.90;;;2.30;;
73023;SDS011;72676;47.526;8.538;2023-12-22T08:06:51;15.03;;;2.00;;
73023;SDS011;72676;47.526;8.538;2023-12-22T08:09:19;16.10;;;3.23;;
73023;SDS011;72676;47.526;8.538;2023-12-22T08:11:45;21.50;;;2.97;;
73023;SDS011;72676;47.526;8.538;2023-12-22T08:14:13;13.20;;;2.70;;
73023;SDS011;72676;47.526;8.538;2023-12-22T08:16:40;8.27;;;1.60;;
73023;SDS011;72676;47.526;8.538;2023-12-22T08:19:06;14.40;;;3.00;;
73023;SDS011;72676;47.526;8.538;2023-12-22T08:21:34;12.73;;;2.40;;
73023;SDS011;72676;47.526;8.538;2023-12-22T08:24:11;15.87;;;2.57;;
73023;SDS011;72676;47.526;8.538;2023-12-22T08:26:47;9.43;;;2.10;;
73023;SDS011;72676;47.526;8.538;2023-12-22T08:29:14;11.30;;;1.90;;
73023;SDS011;72676;47.526;8.538;2023-12-22T08:31:42;13.50;;;2.30;;
73023;SDS011;72676;47.526;8.538;2023-12-22T08:34:10;14.30;;;2.60;;
73023;SDS011;72676;47.526;8.538;2023-12-22T08:36:37;13.53;;;2.33;;
73023;SDS011;72676;47.526;8.538;2023-12-22T08:39:04;10.40;;;2.40;;
73023;SDS011;72676;47.526;8.538;2023-12-22T08:41:34;15.23;;;3.37;;
73023;SDS011;72676;47.526;8.538;2023-12-22T08:44:04;8.53;;;1.87;;
73023;SDS011;72676;47.526;8.538;2023-12-22T08:46:31;15.03;;;3.17;;
73023;SDS011;72676;47.526;8.538;2023-12-22T08:48:58;14.57;;;2.67;;
73023;SDS011;72676;47.526;8.538;2023-12-22T08:51:26;17.03;;;2.70;;
73023;SDS011;72676;47.526;8.538;2023-12-22T08:53:53;14.43;;;2.17;;
73023;SDS011;72676;47.526;8.538;2023-12-22T08:56:24;13.70;;;2.90;;
73023;SDS011;72676;47.526;8.538;2023-12-22T08:58:51;16.67;;;2.33;;
73023;SDS011;72676;47.526;8.538;2023-12-22T09:01:19;7.27;;;2.00;;
73023;SDS011;72676;47.526;8.538;2023-12-22T09:03:46;16.40;;;2.87;;
73023;SDS011;72676;47.526;8.538;2023-12-22T09:06:19;17.20;;;2.70;;
73023;SDS011;72676;47.526;8.538;2023-12-22T09:08:47;20.07;;;2.70;;
73023;SDS011;72676;47.526;8.538;2023-12-22T09:11:15;20.07;;;2.60;;
73023;SDS011;72676;47.526;8.538;2023-12-22T09:13:43;19.70;;;4.03;;
73023;SDS011;72676;47.526;8.538;2023-12-22T09:16:10;17.20;;;3.30;;
73023;SDS011;72676;47.526;8.538;2023-12-22T09:18:36;21.17;;;3.23;;
73023;SDS011;72676;47.526;8.538;2023-12-22T09:21:03;12.93;;;2.50;;
73023;SDS011;72676;47.526;8.538;2023-12-22T09:23:29;18.00;;;2.30;;
73023;SDS011;72676;47.526;8.538;2023-12-22T09:25:57;15.93;;;2.60;;
73023;SDS011;72676;47.526;8.538;2023-12-22T09:28:24;16.40;;;2.53;;
73023;SDS011;72676;47.526;8.538;2023-12-22T09:30:51;14.03;;;3.87;;
73023;SDS011;72676;47.526;8.538;2023-12-22T09:33:18;18.00;;;3.20;;
73023;SDS011;72676;47.526;8.538;2023-12-22T09:35:45;15.37;;;2.87;;
73023;SDS011;72676;47.526;8.538;2023-12-22T09:38:11;15.83;;;2.20;;
73023;SDS011;72676;47.526;8.538;2023-12-22T09:40:40;18.63;;;2.47;;
73023;SDS011;72676;47.526;8.538;2023-12-22T09:43:08;12.10;;;2.50;;
73023;SDS011;72676;47.526;8.538;2023-12-22T09:45:35;15.17;;;2.60;;
73023;SDS011;72676;47.526;8.538;2023-12-22T09:48:03;13.73;;;2.50;;
73023;SDS011;72676;47.526;8.538;2023-12-22T09:50:32;11.70;;;2.87;;
73023;SDS011;72676;47.526;8.538;2023-12-22T09:53:00;16.80;;;2.70;;
73023;SDS011;72676;47.526;8.538;2023-12-22T09:55:28;15.83;;;2.30;;
73023;SDS011;72676;47.526;8.538;2023-12-22T09:57:57;17.47;;;3.13;;
73023;SDS011;72676;47.526;8.538;2023-12-22T10:00:25;8.43;;;2.03;;
73023;SDS011;72676;47.526;8.538;2023-12-22T10:02:55;13.80;;;2.43;;
73023;SDS011;72676;47.526;8.538;2023-12-22T10:05:21;11.23;;;2.10;;
73023;SDS011;72676;47.526;8.538;2023-12-22T10:07:48;13.40;;;2.53;;
73023;SDS011;72676;47.526;8.538;2023-12-22T10:10:17;13.40;;;2.40;;
73023;SDS011;72676;47.526;8.538;2023-12-22T10:12:44;15.23;;;2.27;;
73023;SDS011;72676;47.526;8.538;2023-12-22T10:15:12;15.97;;;2.27;;
73023;SDS011;72676;47.526;8.538;2023-12-22T10:17:39;9.63;;;2.40;;
73023;SDS011;72676;47.526;8.538;2023-12-22T10:20:06;15.53;;;2.10;;
73023;SDS011;72676;47.526;8.538;2023-12-22T10:22:34;10.67;;;2.30;;
73023;SDS011;72676;47.526;8.538;2023-12-22T10:25:01;13.77;;;2.37;;
73023;SDS011;72676;47.526;8.538;2023-12-22T10:27:28;15.60;;;2.50;;
73023;SDS011;72676;47.526;8.538;2023-12-22T10:29:55;16.40;;;3.03;;
73023;SDS011;72676;47.526;8.538;2023-12-22T10:32:23;13.43;;;2.03;;
73023;SDS011;72676;47.526;8.538;2023-12-22T10:34:52;13.07;;;2.30;;
73023;SDS011;72676;47.526;8.538;2023-12-22T10:37:19;14.50;;;2.37;;
73023;SDS011;72676;47.526;8.538;2023-12-22T10:39:47;21.90;;;2.60;;
73023;SDS011;72676;47.526;8.538;2023-12-22T10:42:17;22.50;;;3.63;;
73023;SDS011;72676;47.526;8.538;2023-12-22T10:44:44;11.73;;;2.33;;
73023;SDS011;72676;47.526;8.538;2023-12-22T10:47:11;11.90;;;2.60;;
73023;SDS011;72676;47.526;8.538;2023-12-22T10:49:37;19.10;;;2.23;;
73023;SDS011;72676;47.526;8.538;2023-12-22T10:52:04;12.37;;;2.00;;
73023;SDS011;72676;47.526;8.538;2023-12-22T10:54:30;11.67;;;2.27;;
73023;SDS011;72676;47.526;8.538;2023-12-22T10:56:57;14.10;;;3.03;;
73023;SDS011;72676;47.526;8.538;2023-12-22T10:59:27;13.90;;;2.40;;
73023;SDS011;72676;47.526;8.538;2023-12-22T11:02:00;12.63;;;2.47;;
73023;SDS011;72676;47.526;8.538;2023-12-22T11:04:29;8.90;;;1.93;;
73023;SDS011;72676;47.526;8.538;2023-12-22T11:07:02;19.00;;;2.50;;
73023;SDS011;72676;47.526;8.538;2023-12-22T11:09:31;9.00;;;2.03;;
73023;SDS011;72676;47.526;8.538;2023-12-22T11:11:58;14.87;;;2.03;;
73023;SDS011;72676;47.526;8.538;2023-12-22T11:14:27;12.17;;;1.80;;
73023;SDS011;72676;47.526;8.538;2023-12-22T11:16:57;11.80;;;1.77;;
73023;SDS011;72676;47.526;8.538;2023-12-22T11:19:25;11.20;;;2.37;;
73023;SDS011;72676;47.526;8.538;2023-12-22T11:21:55;9.23;;;2.13;;
73023;SDS011;72676;47.526;8.538;2023-12-22T11:24:24;8.17;;;2.03;;
73023;SDS011;72676;47.526;8.538;2023-12-22T11:26:54;8.57;;;1.73;;
73023;SDS011;72676;47.526;8.538;2023-12-22T11:29:23;10.70;;;2.07;;
73023;SDS011;72676;47.526;8.538;2023-12-22T11:31:52;18.73;;;2.63;;
73023;SDS011;72676;47.526;8.538;2023-12-22T11:34:22;7.93;;;1.80;;
73023;SDS011;72676;47.526;8.538;2023-12-22T11:36:52;12.43;;;2.00;;
73023;SDS011;72676;47.526;8.538;2023-12-22T11:39:21;10.57;;;1.97;;
73023;SDS011;72676;47.526;8.538;2023-12-22T11:41:48;11.73;;;2.23;;
73023;SDS011;72676;47.526;8.538;2023-12-22T11:44:18;6.53;;;1.40;;
73023;SDS011;72676;47.526;8.538;2023-12-22T11:46:45;7.17;;;1.17;;
73023;SDS011;72676;47.526;8.538;2023-12-22T11:49:13;6.03;;;1.00;;
73023;SDS011;72676;47.526;8.538;2023-12-22T11:51:42;5.33;;;1.07;;
73023;SDS011;72676;47.526;8.538;2023-12-22T11:59:54;5.53;;;0.90;;
73023;SDS011;72676;47.526;8.538;2023-12-22T12:02:21;7.37;;;1.27;;
73023;SDS011;72676;47.526;8.538;2023-12-22T12:04:49;5.30;;;1.20;;
73023;SDS011;72676;47.526;8.538;2023-12-22T12:10:03;5.37;;;1.20;;
73023;SDS011;72676;47.526;8.538;2023-12-22T12:12:29;6.17;;;0.87;;
73023;SDS011;72676;47.526;8.538;2023-12-22T12:14:57;6.63;;;1.10;;
73023;SDS011;72676;47.526;8.538;2023-12-22T12:17:33;4.57;;;1.10;;
73023;SDS011;72676;47.526;8.538;2023-12-22T12:19:59;8.27;;;0.93;;
73023;SDS011;72676;47.526;8.538;2023-12-22T12:22:26;11.83;;;1.47;;
73023;SDS011;72676;47.526;8.538;2023-12-22T12:24:54;5.17;;;0.87;;
73023;SDS011;72676;47.526;8.538;2023-12-22T12:27:21;5.43;;;0.80;;
73023;SDS011;72676;47.526;8.538;2023-12-22T12:29:47;5.80;;;0.90;;
73023;SDS011;72676;47.526;8.538;2023-12-22T12:32:14;7.00;;;0.90;;
73023;SDS011;72676;47.526;8.538;2023-12-22T12:34:44;5.37;;;0.80;;
73023;SDS011;72676;47.526;8.538;2023-12-22T12:37:11;4.40;;;0.70;;
73023;SDS011;72676;47.526;8.538;2023-12-22T12:39:38;3.90;;;0.73;;
73023;SDS011;72676;47.526;8.538;2023-12-22T12:42:07;6.77;;;0.83;;
73023;SDS011;72676;47.526;8.538;2023-12-22T12:44:34;4.70;;;0.80;;
73023;SDS011;72676;47.526;8.538;2023-12-22T12:47:11;3.73;;;0.80;;
73023;SDS011;72676;47.526;8.538;2023-12-22T12:49:38;4.00;;;0.90;;
73023;SDS011;72676;47.526;8.538;2023-12-22T12:52:05;5.50;;;1.10;;
73023;SDS011;72676;47.526;8.538;2023-12-22T12:54:32;3.70;;;0.90;;
73023;SDS011;72676;47.526;8.538;2023-12-22T12:56:59;3.63;;;0.73;;
73023;SDS011;72676;47.526;8.538;2023-12-22T12:59:25;5.33;;;1.13;;
73023;SDS011;72676;47.526;8.538;2023-12-22T13:01:51;6.33;;;1.27;;
73023;SDS011;72676;47.526;8.538;2023-12-22T13:04:19;5.13;;;0.80;;
73023;SDS011;72676;47.526;8.538;2023-12-22T13:06:46;4.20;;;0.70;;
73023;SDS011;72676;47.526;8.538;2023-12-22T13:09:14;3.97;;;0.70;;
73023;SDS011;72676;47.526;8.538;2023-12-22T13:11:42;4.77;;;0.70;;
73023;SDS011;72676;47.526;8.538;2023-12-22T13:14:10;4.20;;;0.97;;
73023;SDS011;72676;47.526;8.538;2023-12-22T13:16:37;3.93;;;0.80;;
73023;SDS011;72676;47.526;8.538;2023-12-22T13:19:05;5.40;;;0.90;;
73023;SDS011;72676;47.526;8.538;2023-12-22T13:21:32;4.80;;;0.87;;
73023;SDS011;72676;47.526;8.538;2023-12-22T13:26:39;4.07;;;0.80;;
73023;SDS011;72676;47.526;8.538;2023-12-22T13:29:06;3.43;;;0.60;;
73023;SDS011;72676;47.526;8.538;2023-12-22T13:31:33;3.23;;;0.67;;
73023;SDS011;72676;47.526;8.538;2023-12-22T13:34:03;6.33;;;0.93;;
73023;SDS011;72676;47.526;8.538;2023-12-22T13:36:33;4.30;;;1.00;;
73023;SDS011;72676;47.526;8.538;2023-12-22T13:39:01;3.30;;;0.60;;
73023;SDS011;72676;47.526;8.538;2023-12-22T13:41:27;7.07;;;0.63;;
73023;SDS011;72676;47.526;8.538;2023-12-22T13:43:54;3.73;;;0.80;;
73023;SDS011;72676;47.526;8.538;2023-12-22T13:46:22;3.63;;;0.77;;
73023;SDS011;72676;47.526;8.538;2023-12-22T13:48:54;3.40;;;0.70;;
73023;SDS011;72676;47.526;8.538;2023-12-22T13:51:21;3.90;;;0.90;;
73023;SDS011;72676;47.526;8.538;2023-12-22T13:53:47;3.20;;;0.60;;
73023;SDS011;72676;47.526;8.538;2023-12-22T13:56:15;4.20;;;0.63;;
73023;SDS011;72676;47.526;8.538;2023-12-22T13:58:45;3.30;;;0.60;;
73023;SDS011;72676;47.526;8.538;2023-12-22T14:01:15;4.80;;;0.80;;
73023;SDS011;72676;47.526;8.538;2023-12-22T14:03:43;3.20;;;0.50;;
73023;SDS011;72676;47.526;8.538;2023-12-22T14:06:14;3.83;;;0.70;;
73023;SDS011;72676;47.526;8.538;2023-12-22T14:08:40;3.20;;;0.50;;
73023;SDS011;72676;47.526;8.538;2023-12-22T14:11:07;3.47;;;0.67;;
73023;SDS011;72676;47.526;8.538;2023-12-22T14:13:34;3.47;;;0.67;;
73023;SDS011;72676;47.526;8.538;2023-12-22T14:16:06;3.30;;;0.73;;
73023;SDS011;72676;47.526;8.538;2023-12-22T14:18:33;3.93;;;0.70;;
73023;SDS011;72676;47.526;8.538;2023-12-22T14:21:00;4.07;;;0.80;;
73023;SDS011;72676;47.526;8.538;2023-12-22T14:23:27;3.30;;;0.60;;
73023;SDS011;72676;47.526;8.538;2023-12-22T14:25:53;3.20;;;0.60;;
73023;SDS011;72676;47.526;8.538;2023-12-22T14:28:20;6.60;;;1.00;;
73023;SDS011;72676;47.526;8.538;2023-12-22T14:30:47;3.80;;;0.70;;
73023;SDS011;72676;47.526;8.538;2023-12-22T14:33:13;3.70;;;0.60;;
73023;SDS011;72676;47.526;8.538;2023-12-22T14:35:40;6.33;;;0.80;;
73023;SDS011;72676;47.526;8.538;2023-12-22T14:38:07;3.30;;;0.60;;
73023;SDS011;72676;47.526;8.538;2023-12-22T14:40:34;3.40;;;0.70;;
73023;SDS011;72676;47.526;8.538;2023-12-22T14:43:00;5.43;;;0.90;;
73023;SDS011;72676;47.526;8.538;2023-12-22T14:45:28;3.80;;;1.00;;
73023;SDS011;72676;47.526;8.538;2023-12-22T14:47:54;3.40;;;0.70;;
73023;SDS011;72676;47.526;8.538;2023-12-22T14:50:21;3.53;;;0.73;;
73023;SDS011;72676;47.526;8.538;2023-12-22T14:52:47;3.80;;;0.70;;
73023;SDS011;72676;47.526;8.538;2023-12-22T14:55:14;4.20;;;0.90;;